createdAt,value
2019-03-27T00:00:44.998Z,14.00
2019-03-27T00:03:14.396Z,14.00
2019-03-27T00:05:57.923Z,14.00
2019-03-27T00:08:27.321Z,14.10
2019-03-27T00:10:56.699Z,14.10
2019-03-27T00:13:26.103Z,14.10
2019-03-27T00:15:55.495Z,14.20
2019-03-27T00:18:24.875Z,14.30
2019-03-27T00:20:54.403Z,14.40
2019-03-27T00:23:23.784Z,14.50
2019-03-27T00:25:53.200Z,14.50
2019-03-27T00:28:22.582Z,14.50
2019-03-27T00:30:51.970Z,14.40
2019-03-27T00:33:21.362Z,14.30
2019-03-27T00:35:50.744Z,14.30
2019-03-27T00:38:20.158Z,14.30
2019-03-27T00:40:49.618Z,14.40
2019-03-27T00:43:19.022Z,14.40
2019-03-27T00:45:48.403Z,14.30
2019-03-27T00:48:17.794Z,14.40
2019-03-27T00:50:47.169Z,14.40
2019-03-27T00:53:16.650Z,14.50
2019-03-27T00:55:46.118Z,14.40
2019-03-27T00:58:15.500Z,14.40
2019-03-27T01:00:47.968Z,14.30
2019-03-27T01:03:17.362Z,14.30
2019-03-27T01:05:47.807Z,14.30
2019-03-27T01:08:17.203Z,14.20
2019-03-27T01:10:46.591Z,14.20
2019-03-27T01:13:15.995Z,14.10
2019-03-27T01:15:46.442Z,14.10
2019-03-27T01:18:15.903Z,14.10
2019-03-27T01:20:45.294Z,14.20
2019-03-27T01:23:14.678Z,14.10
2019-03-27T01:25:44.078Z,14.00
2019-03-27T01:28:13.477Z,14.00
2019-03-27T01:30:44.007Z,13.90
2019-03-27T01:33:13.396Z,13.90
2019-03-27T01:35:42.895Z,13.90
2019-03-27T01:38:12.293Z,13.90
2019-03-27T01:40:42.219Z,13.90
2019-03-27T01:43:12.213Z,13.90
2019-03-27T01:45:52.383Z,13.90
2019-03-27T01:48:12.672Z,13.80
2019-03-27T01:50:42.115Z,13.80
2019-03-27T01:53:11.502Z,13.80
2019-03-27T01:55:40.874Z,13.80
2019-03-27T01:58:10.292Z,13.70
2019-03-27T02:00:39.843Z,13.70
2019-03-27T02:03:10.190Z,13.70
2019-03-27T02:05:39.598Z,13.60
2019-03-27T02:08:08.983Z,13.60
2019-03-27T02:10:38.511Z,13.60
2019-03-27T02:13:07.905Z,13.70
2019-03-27T02:15:37.315Z,13.60
2019-03-27T02:18:06.770Z,13.60
2019-03-27T02:20:36.214Z,13.50
2019-03-27T02:23:05.607Z,13.50
2019-03-27T02:25:35.010Z,13.50
2019-03-27T02:28:04.423Z,13.50
2019-03-27T02:30:33.806Z,13.40
2019-03-27T02:33:03.279Z,13.50
2019-03-27T02:35:32.735Z,13.50
2019-03-27T02:38:02.135Z,13.30
2019-03-27T02:40:31.595Z,13.30
2019-03-27T02:43:01.004Z,13.30
2019-03-27T02:45:30.442Z,13.40
2019-03-27T02:47:59.894Z,13.40
2019-03-27T02:50:29.332Z,13.40
2019-03-27T02:52:58.720Z,13.40
2019-03-27T02:55:28.197Z,13.40
2019-03-27T02:57:57.658Z,13.40
2019-03-27T03:00:27.185Z,13.40
2019-03-27T03:02:56.639Z,13.40
2019-03-27T03:05:26.035Z,13.30
2019-03-27T03:07:55.407Z,13.30
2019-03-27T03:10:24.811Z,13.40
2019-03-27T03:12:54.202Z,13.30
2019-03-27T03:15:24.533Z,13.30
2019-03-27T03:17:54.077Z,13.30
2019-03-27T03:20:23.530Z,13.20
2019-03-27T03:22:52.971Z,13.20
2019-03-27T03:25:22.368Z,13.20
2019-03-27T03:27:51.822Z,13.20
2019-03-27T03:30:21.230Z,13.20
2019-03-27T03:32:50.699Z,13.10
2019-03-27T03:35:20.076Z,13.10
2019-03-27T03:37:50.567Z,13.10
2019-03-27T03:40:20.022Z,13.00
2019-03-27T03:42:50.487Z,13.00
2019-03-27T03:45:20.047Z,13.10
2019-03-27T03:47:49.450Z,13.00
2019-03-27T03:50:38.949Z,13.10
2019-03-27T03:53:12.497Z,13.00
2019-03-27T03:55:43.914Z,13.10
2019-03-27T03:58:15.221Z,13.00
2019-03-27T04:00:45.045Z,12.90
2019-03-27T04:03:14.525Z,12.90
2019-03-27T04:05:43.988Z,12.90
2019-03-27T04:08:13.441Z,12.90
2019-03-27T04:11:02.164Z,12.90
2019-03-27T04:13:31.570Z,13.00
2019-03-27T04:16:00.957Z,12.90
2019-03-27T04:18:30.376Z,12.90
2019-03-27T04:20:59.759Z,12.80
2019-03-27T04:23:29.229Z,12.70
2019-03-27T04:26:09.862Z,12.70
2019-03-27T04:28:29.706Z,12.80
2019-03-27T04:30:59.275Z,12.80
2019-03-27T04:33:28.673Z,12.70
2019-03-27T04:35:58.143Z,12.70
2019-03-27T04:38:27.538Z,12.70
2019-03-27T04:40:56.937Z,12.80
2019-03-27T04:43:26.334Z,12.70
2019-03-27T04:46:09.731Z,12.80
2019-03-27T04:48:39.131Z,12.80
2019-03-27T04:51:22.770Z,12.80
2019-03-27T04:53:52.179Z,12.70
2019-03-27T04:56:21.731Z,12.70
2019-03-27T04:58:51.135Z,12.70
2019-03-27T05:01:20.701Z,12.70
2019-03-27T05:03:50.370Z,12.60
2019-03-27T05:06:19.771Z,12.60
2019-03-27T05:08:49.193Z,12.50
2019-03-27T05:11:18.576Z,12.40
2019-03-27T05:13:47.978Z,12.50
2019-03-27T05:16:17.376Z,12.40
2019-03-27T05:18:46.777Z,12.40
2019-03-27T05:21:16.270Z,12.30
2019-03-27T05:23:45.716Z,12.20
2019-03-27T05:26:15.102Z,12.20
2019-03-27T05:28:44.507Z,12.20
2019-03-27T05:31:13.895Z,12.20
2019-03-27T05:33:43.375Z,12.10
2019-03-27T05:36:12.875Z,12.10
2019-03-27T05:38:42.230Z,12.10
2019-03-27T05:41:11.603Z,12.10
2019-03-27T05:43:41.000Z,12.10
2019-03-27T05:46:10.395Z,12.00
2019-03-27T05:48:39.805Z,12.10
2019-03-27T05:51:09.187Z,12.00
2019-03-27T05:53:38.564Z,12.00
2019-03-27T05:56:07.955Z,12.00
2019-03-27T05:58:38.407Z,12.00
2019-03-27T06:01:07.803Z,12.20
2019-03-27T06:03:37.266Z,12.30
2019-03-27T06:06:06.655Z,12.40
2019-03-27T06:08:36.054Z,12.60
2019-03-27T06:11:05.461Z,12.60
2019-03-27T06:13:34.864Z,12.70
2019-03-27T06:16:04.267Z,12.80
2019-03-27T06:18:34.791Z,12.80
2019-03-27T06:21:04.201Z,12.90
2019-03-27T06:23:33.598Z,12.90
2019-03-27T06:26:03.011Z,13.00
2019-03-27T06:28:32.416Z,12.90
2019-03-27T06:31:01.816Z,12.90
2019-03-27T06:33:32.166Z,12.90
2019-03-27T06:36:01.570Z,13.00
2019-03-27T06:38:30.953Z,13.20
2019-03-27T06:41:00.359Z,13.20
2019-03-27T06:43:29.758Z,13.30
2019-03-27T06:45:59.175Z,13.30
2019-03-27T06:48:28.555Z,13.30
2019-03-27T06:50:57.959Z,13.20
2019-03-27T06:53:27.502Z,13.20
2019-03-27T06:55:56.928Z,13.10
2019-03-27T06:58:26.314Z,13.20
2019-03-27T07:00:55.963Z,13.30
2019-03-27T07:03:25.360Z,13.40
2019-03-27T07:05:54.770Z,13.50
2019-03-27T07:08:24.154Z,13.60
2019-03-27T07:10:53.552Z,13.80
2019-03-27T07:13:22.938Z,13.90
2019-03-27T07:15:52.330Z,13.90
2019-03-27T07:18:22.514Z,14.00
2019-03-27T07:20:51.890Z,14.00
2019-03-27T07:23:21.304Z,14.10
2019-03-27T07:25:50.835Z,14.10
2019-03-27T07:28:20.231Z,14.20
2019-03-27T07:30:49.635Z,14.20
2019-03-27T07:33:19.039Z,14.30
2019-03-27T07:35:49.403Z,14.30
2019-03-27T07:38:18.793Z,14.30
2019-03-27T07:40:48.258Z,14.30
2019-03-27T07:43:17.674Z,14.40
2019-03-27T07:45:47.141Z,14.40
2019-03-27T07:48:17.715Z,14.50
2019-03-27T07:50:47.129Z,14.50
2019-03-27T07:53:16.514Z,14.50
2019-03-27T07:55:46.029Z,14.50
2019-03-27T07:58:15.546Z,14.50
2019-03-27T08:00:44.995Z,14.60
2019-03-27T08:03:15.562Z,14.60
2019-03-27T08:05:44.968Z,14.70
2019-03-27T08:08:14.372Z,14.80
2019-03-27T08:10:44.910Z,14.80
2019-03-27T08:13:14.327Z,14.90
2019-03-27T08:15:43.735Z,15.00
2019-03-27T08:18:14.170Z,15.00
2019-03-27T08:20:43.554Z,15.10
2019-03-27T08:23:12.954Z,15.10
2019-03-27T08:25:42.363Z,15.10
2019-03-27T08:28:11.743Z,15.20
2019-03-27T08:30:42.155Z,15.20
2019-03-27T08:33:11.571Z,15.20
2019-03-27T08:35:40.977Z,15.40
2019-03-27T08:38:10.361Z,15.40
2019-03-27T08:40:39.763Z,15.50
2019-03-27T08:43:20.743Z,15.50
2019-03-27T08:45:40.245Z,15.50
2019-03-27T08:48:09.630Z,15.50
2019-03-27T08:50:39.035Z,15.70
2019-03-27T08:53:08.431Z,15.80
2019-03-27T08:55:37.942Z,15.80
2019-03-27T08:58:07.330Z,15.90
2019-03-27T09:00:47.714Z,15.90
2019-03-27T09:03:17.518Z,15.90
2019-03-27T09:05:46.983Z,16.00
2019-03-27T09:08:16.590Z,16.10
2019-03-27T09:10:46.038Z,16.00
2019-03-27T09:13:15.420Z,16.10
2019-03-27T09:15:44.819Z,16.10
2019-03-27T09:18:16.818Z,16.10
2019-03-27T09:20:45.274Z,16.10
2019-03-27T09:23:14.830Z,16.10
2019-03-27T09:25:44.206Z,16.10
2019-03-27T09:28:13.596Z,16.00
2019-03-27T09:30:43.097Z,16.00
2019-03-27T09:33:12.542Z,16.10
2019-03-27T09:35:41.928Z,16.10
2019-03-27T09:38:11.404Z,16.10
2019-03-27T09:40:40.786Z,16.10
2019-03-27T09:43:10.232Z,16.10
2019-03-27T09:45:39.764Z,16.10
2019-03-27T09:48:09.145Z,16.00
2019-03-27T09:50:39.266Z,16.00
2019-03-27T09:53:08.656Z,16.10
2019-03-27T09:55:38.057Z,16.20
2019-03-27T09:58:07.520Z,16.20
2019-03-27T10:00:49.367Z,16.20
2019-03-27T10:03:18.919Z,16.20
2019-03-27T10:05:48.377Z,16.10
2019-03-27T10:08:17.763Z,16.20
2019-03-27T10:10:47.188Z,16.30
2019-03-27T10:13:16.578Z,16.30
2019-03-27T10:15:45.982Z,16.40
2019-03-27T10:18:15.357Z,16.40
2019-03-27T10:20:44.828Z,16.40
2019-03-27T10:23:14.283Z,16.30
2019-03-27T10:25:43.693Z,16.40
2019-03-27T10:28:13.086Z,16.40
2019-03-27T10:30:42.586Z,16.40
2019-03-27T10:33:15.238Z,16.50
2019-03-27T10:35:44.305Z,16.50
2019-03-27T10:38:13.751Z,16.50
2019-03-27T10:40:43.172Z,16.50
2019-03-27T10:43:26.850Z,16.50
2019-03-27T10:45:56.233Z,16.60
2019-03-27T10:48:25.622Z,16.60
2019-03-27T10:50:55.014Z,16.50
2019-03-27T10:53:24.410Z,16.50
2019-03-27T10:55:53.795Z,16.60
2019-03-27T10:58:23.260Z,16.60
2019-03-27T11:00:52.725Z,16.50
2019-03-27T11:03:22.164Z,16.50
2019-03-27T11:05:51.548Z,16.50
2019-03-27T11:08:20.940Z,16.60
2019-03-27T11:10:51.379Z,16.70
2019-03-27T11:13:20.801Z,16.60
2019-03-27T11:15:50.177Z,16.70
2019-03-27T11:18:19.605Z,16.70
2019-03-27T11:20:49.023Z,16.60
2019-03-27T11:23:18.411Z,16.60
2019-03-27T11:25:47.790Z,16.60
2019-03-27T11:28:17.242Z,16.60
2019-03-27T11:30:48.378Z,16.60
2019-03-27T11:33:18.056Z,16.60
2019-03-27T11:35:47.577Z,16.60
2019-03-27T11:38:16.979Z,16.60
2019-03-27T11:40:47.351Z,16.50
2019-03-27T11:43:16.817Z,16.50
2019-03-27T11:45:48.788Z,16.60
2019-03-27T11:48:18.835Z,16.70
2019-03-27T11:50:48.388Z,16.70
2019-03-27T11:53:17.762Z,16.70
2019-03-27T11:55:47.168Z,16.70
2019-03-27T11:58:16.613Z,16.70
2019-03-27T12:00:54.271Z,16.70
2019-03-27T12:03:18.284Z,16.70
2019-03-27T12:05:47.667Z,16.70
2019-03-27T12:08:17.067Z,16.60
2019-03-27T12:10:46.458Z,16.70
2019-03-27T12:13:15.849Z,16.70
2019-03-27T12:15:45.249Z,16.70
2019-03-27T12:18:15.572Z,16.80
2019-03-27T12:20:57.693Z,16.70
2019-03-27T12:23:16.218Z,16.70
2019-03-27T12:25:45.803Z,16.80
2019-03-27T12:28:15.279Z,16.70
2019-03-27T12:30:44.662Z,16.70
2019-03-27T12:33:14.064Z,16.70
2019-03-27T12:35:43.540Z,16.70
2019-03-27T12:38:12.949Z,16.70
2019-03-27T12:40:42.465Z,16.70
2019-03-27T12:43:11.863Z,16.80
2019-03-27T12:45:41.252Z,16.80
2019-03-27T12:48:10.645Z,16.80
2019-03-27T12:50:40.162Z,16.80
2019-03-27T12:53:09.867Z,16.70
2019-03-27T12:55:39.312Z,16.80
2019-03-27T12:58:11.610Z,16.70
2019-03-27T13:00:40.286Z,16.80
2019-03-27T13:03:09.728Z,16.70
2019-03-27T13:05:58.459Z,16.80
2019-03-27T13:08:27.859Z,16.70
2019-03-27T13:10:57.251Z,16.80
2019-03-27T13:13:26.649Z,16.80
2019-03-27T13:15:56.127Z,16.80
2019-03-27T13:18:25.522Z,16.80
2019-03-27T13:20:54.911Z,16.80
2019-03-27T13:23:25.508Z,16.80
2019-03-27T13:25:55.083Z,16.80
2019-03-27T13:28:24.495Z,16.80
2019-03-27T13:30:53.897Z,16.80
2019-03-27T13:33:23.360Z,16.80
2019-03-27T13:35:52.761Z,16.80
2019-03-27T13:38:22.223Z,16.80
2019-03-27T13:40:51.739Z,16.80
2019-03-27T13:43:21.199Z,16.70
2019-03-27T13:45:50.875Z,16.70
2019-03-27T13:48:20.256Z,16.70
2019-03-27T13:50:49.647Z,16.70
2019-03-27T13:53:19.107Z,16.80
2019-03-27T13:55:48.563Z,16.80
2019-03-27T13:58:17.960Z,16.70
2019-03-27T14:00:47.350Z,16.80
2019-03-27T14:03:16.887Z,16.70
2019-03-27T14:05:46.259Z,16.70
2019-03-27T14:08:16.887Z,16.70
2019-03-27T14:10:46.435Z,16.80
2019-03-27T14:13:15.831Z,16.80
2019-03-27T14:15:45.207Z,16.80
2019-03-27T14:18:14.767Z,16.80
2019-03-27T14:20:44.207Z,16.80
2019-03-27T14:23:13.611Z,16.70
2019-03-27T14:25:42.995Z,16.80
2019-03-27T14:28:12.383Z,16.80
2019-03-27T14:30:52.739Z,16.80
2019-03-27T14:33:22.345Z,16.80
2019-03-27T14:35:54.251Z,16.80
2019-03-27T14:38:23.695Z,16.90
2019-03-27T14:40:53.142Z,16.90
2019-03-27T14:43:22.535Z,16.90
2019-03-27T14:45:51.924Z,16.90
2019-03-27T14:48:21.302Z,16.90
2019-03-27T14:50:50.772Z,16.90
2019-03-27T14:53:20.454Z,16.90
2019-03-27T14:55:49.843Z,17.00
2019-03-27T14:58:19.307Z,17.00
2019-03-27T15:00:48.687Z,16.90
2019-03-27T15:03:18.051Z,16.90
2019-03-27T15:05:47.457Z,16.90
2019-03-27T15:08:16.833Z,16.90
2019-03-27T15:10:46.542Z,17.00
2019-03-27T15:13:15.948Z,17.00
2019-03-27T15:15:45.414Z,17.00
2019-03-27T15:18:14.807Z,17.10
2019-03-27T15:20:44.191Z,17.00
2019-03-27T15:23:13.622Z,16.90
2019-03-27T15:25:43.226Z,16.90
2019-03-27T15:28:12.603Z,17.00
2019-03-27T15:30:42.016Z,17.00
2019-03-27T15:33:11.404Z,17.00
2019-03-27T15:35:40.783Z,17.10
2019-03-27T15:38:10.178Z,17.10
2019-03-27T15:40:47.036Z,17.00
2019-03-27T15:43:16.420Z,17.10
2019-03-27T15:45:45.806Z,17.00
2019-03-27T15:48:15.556Z,17.00
2019-03-27T15:50:55.496Z,17.00
2019-03-27T15:53:16.130Z,17.00
2019-03-27T15:55:45.523Z,17.00
2019-03-27T15:58:14.907Z,17.00
2019-03-27T16:00:44.499Z,16.90
2019-03-27T16:03:14.020Z,16.90
2019-03-27T16:05:43.524Z,16.90
2019-03-27T16:08:12.896Z,16.90
2019-03-27T16:10:42.380Z,16.90
2019-03-27T16:13:11.836Z,16.90
2019-03-27T16:15:41.302Z,16.90
2019-03-27T16:18:10.676Z,17.00
2019-03-27T16:20:41.103Z,17.00
2019-03-27T16:23:10.472Z,17.00
2019-03-27T16:25:40.135Z,17.00
2019-03-27T16:28:09.503Z,17.00
2019-03-27T16:30:38.883Z,17.00
2019-03-27T16:33:08.301Z,16.90
2019-03-27T16:35:38.124Z,17.00
2019-03-27T16:38:07.507Z,17.00
2019-03-27T16:40:44.039Z,17.00
2019-03-27T16:43:14.931Z,17.00
2019-03-27T16:45:44.674Z,17.00
2019-03-27T16:48:14.283Z,16.90
2019-03-27T16:50:43.668Z,16.80
2019-03-27T16:53:13.135Z,16.90
2019-03-27T16:55:42.589Z,16.90
2019-03-27T16:58:11.970Z,16.90
2019-03-27T17:00:41.600Z,17.00
2019-03-27T17:03:11.223Z,17.10
2019-03-27T17:05:53.238Z,17.00
2019-03-27T17:08:11.684Z,17.10
2019-03-27T17:10:41.095Z,17.10
2019-03-27T17:13:10.562Z,17.00
2019-03-27T17:15:39.946Z,17.10
2019-03-27T17:18:09.417Z,17.10
2019-03-27T17:20:38.901Z,17.00
2019-03-27T17:23:18.029Z,17.00
2019-03-27T17:25:39.899Z,17.00
2019-03-27T17:28:09.345Z,17.00
2019-03-27T17:30:38.843Z,17.10
2019-03-27T17:33:08.299Z,17.20
2019-03-27T17:35:37.738Z,17.30
2019-03-27T17:38:07.120Z,17.30
2019-03-27T17:40:36.607Z,17.20
2019-03-27T17:43:06.100Z,17.10
2019-03-27T17:45:35.471Z,17.00
2019-03-27T17:48:05.596Z,17.00
2019-03-27T17:50:35.046Z,17.00
2019-03-27T17:53:04.584Z,17.00
2019-03-27T17:55:33.956Z,16.90
2019-03-27T17:58:03.523Z,16.90
2019-03-27T18:00:44.547Z,16.90
2019-03-27T18:03:13.956Z,16.90
2019-03-27T18:05:43.469Z,16.90
2019-03-27T18:08:12.944Z,16.80
2019-03-27T18:10:56.303Z,16.80
2019-03-27T18:13:25.693Z,16.80
2019-03-27T18:15:55.171Z,16.80
2019-03-27T18:18:24.575Z,16.80
2019-03-27T18:20:53.963Z,16.80
2019-03-27T18:23:23.374Z,16.90
2019-03-27T18:25:53.034Z,16.90
2019-03-27T18:28:22.436Z,16.90
2019-03-27T18:30:51.819Z,16.90
2019-03-27T18:33:21.187Z,16.90
2019-03-27T18:35:50.765Z,16.80
2019-03-27T18:38:20.159Z,16.80
2019-03-27T18:40:49.525Z,16.70
2019-03-27T18:43:18.911Z,16.60
2019-03-27T18:45:48.290Z,16.40
2019-03-27T18:48:17.686Z,16.40
2019-03-27T18:50:47.117Z,16.40
2019-03-27T18:53:16.524Z,16.40
2019-03-27T18:55:46.097Z,16.50
2019-03-27T18:58:15.598Z,16.60
2019-03-27T19:00:45.008Z,16.60
2019-03-27T19:03:14.382Z,16.70
2019-03-27T19:05:43.779Z,16.70
2019-03-27T19:08:13.163Z,16.70
2019-03-27T19:10:44.426Z,16.70
2019-03-27T19:13:13.827Z,16.70
2019-03-27T19:15:43.203Z,16.70
2019-03-27T19:18:12.672Z,16.60
2019-03-27T19:20:42.055Z,16.60
2019-03-27T19:23:11.452Z,16.70
2019-03-27T19:25:40.914Z,16.80
2019-03-27T19:28:10.379Z,16.80
2019-03-27T19:30:39.762Z,16.90
2019-03-27T19:33:09.154Z,17.00
2019-03-27T19:35:38.532Z,17.00
2019-03-27T19:38:08.059Z,16.90
2019-03-27T19:40:37.461Z,16.80
2019-03-27T19:43:06.920Z,16.80
2019-03-27T19:45:36.397Z,16.70
2019-03-27T19:48:06.099Z,16.80
2019-03-27T19:50:35.631Z,16.70
2019-03-27T19:53:05.083Z,16.70
2019-03-27T19:55:34.467Z,16.70
2019-03-27T19:58:04.139Z,16.60
2019-03-27T20:00:33.532Z,16.60
2019-03-27T20:03:02.998Z,16.60
2019-03-27T20:05:32.633Z,16.60
2019-03-27T20:08:02.039Z,16.60
2019-03-27T20:10:31.500Z,16.70
2019-03-27T20:13:00.972Z,16.80
2019-03-27T20:15:30.473Z,16.80
2019-03-27T20:17:59.879Z,16.70
2019-03-27T20:20:29.279Z,16.70
2019-03-27T20:22:58.828Z,16.70
2019-03-27T20:25:28.216Z,16.70
2019-03-27T20:27:57.592Z,16.80
2019-03-27T20:30:27.205Z,16.80
2019-03-27T20:32:56.705Z,16.70
2019-03-27T20:35:27.151Z,16.70
2019-03-27T20:37:56.641Z,16.70
2019-03-27T20:40:27.686Z,16.70
2019-03-27T20:42:57.322Z,16.70
2019-03-27T20:45:26.804Z,16.70
2019-03-27T20:47:56.181Z,16.80
2019-03-27T20:50:26.928Z,16.70
2019-03-27T20:52:56.808Z,16.70
2019-03-27T20:55:30.691Z,16.70
2019-03-27T20:57:57.350Z,16.60
2019-03-27T21:00:27.819Z,16.60
2019-03-27T21:02:57.332Z,16.60
2019-03-27T21:05:26.722Z,16.70
2019-03-27T21:07:56.186Z,16.70
2019-03-27T21:10:25.645Z,16.70
2019-03-27T21:12:55.039Z,16.70
2019-03-27T21:15:24.456Z,16.60
2019-03-27T21:17:54.114Z,16.60
2019-03-27T21:20:23.575Z,16.50
2019-03-27T21:22:52.951Z,16.40
2019-03-27T21:25:22.394Z,16.30
2019-03-27T21:27:51.844Z,16.30
2019-03-27T21:30:21.752Z,16.30
2019-03-27T21:32:51.263Z,16.40
2019-03-27T21:35:20.809Z,16.40
2019-03-27T21:37:50.318Z,16.50
2019-03-27T21:40:19.821Z,16.40
2019-03-27T21:42:49.416Z,16.50
2019-03-27T21:45:19.988Z,16.50
2019-03-27T21:47:49.504Z,16.50
2019-03-27T21:50:19.022Z,16.40
2019-03-27T21:52:59.929Z,16.50
2019-03-27T21:55:22.761Z,16.50
2019-03-27T21:57:50.958Z,16.50
2019-03-27T22:00:38.032Z,16.60
2019-03-27T22:03:07.626Z,16.60
2019-03-27T22:05:37.365Z,16.60
2019-03-27T22:08:06.870Z,16.50
2019-03-27T22:10:36.503Z,16.50
2019-03-27T22:13:06.182Z,16.50
2019-03-27T22:15:36.962Z,16.60
2019-03-27T22:18:06.768Z,16.50
2019-03-27T22:20:39.511Z,16.60
2019-03-27T22:23:07.569Z,16.60
2019-03-27T22:25:37.121Z,16.70
2019-03-27T22:28:06.630Z,16.70
2019-03-27T22:30:36.393Z,16.70
2019-03-27T22:33:06.107Z,16.70
2019-03-27T22:35:35.625Z,16.70
2019-03-27T22:38:05.231Z,16.70
2019-03-27T22:40:34.792Z,16.60
2019-03-27T22:43:04.334Z,16.60
2019-03-27T22:45:34.001Z,16.70
2019-03-27T22:48:04.821Z,16.60
2019-03-27T22:50:34.434Z,16.70
2019-03-27T22:53:04.527Z,16.60
2019-03-27T22:55:34.462Z,16.60
2019-03-27T22:58:04.061Z,16.50
2019-03-27T23:00:35.271Z,16.50
2019-03-27T23:03:18.453Z,16.60
2019-03-27T23:05:46.946Z,16.60
2019-03-27T23:08:16.699Z,16.60
2019-03-27T23:10:46.345Z,16.60
2019-03-27T23:13:17.659Z,16.60
2019-03-27T23:15:47.212Z,16.60
2019-03-27T23:18:16.810Z,16.60
2019-03-27T23:20:46.626Z,16.60
2019-03-27T23:23:16.101Z,16.60
2019-03-27T23:25:45.901Z,16.60
2019-03-27T23:28:15.403Z,16.60
2019-03-27T23:30:44.988Z,16.60
2019-03-27T23:33:14.495Z,16.60
2019-03-27T23:35:44.321Z,16.60
2019-03-27T23:38:14.129Z,16.60
2019-03-27T23:40:43.621Z,16.60
2019-03-27T23:43:13.145Z,16.60
2019-03-27T23:45:42.645Z,16.50
2019-03-27T23:48:12.230Z,16.50
2019-03-27T23:50:41.770Z,16.50
2019-03-27T23:53:11.253Z,16.50
2019-03-27T23:55:40.760Z,16.50
2019-03-27T23:58:10.345Z,16.50
